Golden Beach, FL

2:29 PM EDT on October 25, 2014 (GMT -0400)
APRSWXNET Miami FL US | Change Station
CLOSE
Current Station
Personal Weather Station
Location: Miami, FL
Elevation: 9 ft
Nearby Weather Stations

Elev 9 ft 25.96 °N, 80.13 °W | Updated 666 days ago

Partly Cloudy
Partly Cloudy
80 °F
Feels Like 80 °F
N
13
Wind Variable Wind from North
Gusts 17 mph

Today
High -- | Low -- °F
--% Chance of Precip.
Yesterday
High -- | Low -- °F
Precip. -- in
7:24 AM 6:43 PM
Waxing Crescent, 4% visible
Pressure 29.89 in
Visibility 10.0 miles
Clouds Scattered Clouds 4500 ft
Mostly Cloudy 5500 ft
Dew Point 60 °F
Humidity 50%
Rainfall 0.00 in
Snow Depth Not available.
UV 5 out of 12
Pollen 3.00 out of 12
Ozone Good
PM2.5 Good
Flu Activity Local Activity
METAR KFLL 251753Z 04011G19KT 10SM SCT045 BKN055 27/17 A2989 RMK AO2 SLP121 T02720172 10289 20206 58012

More Conditions Fewer Conditions

Pressure 29.89 in
Visibility 10.0 miles
Clouds Scattered Clouds 4500 ft
Mostly Cloudy 5500 ft
Dew Point 60 °F
Humidity 50%
Rainfall 0.00 in
Snow Depth Not available.
UV 5 out of 12
Pollen 3.00 out of 12
Ozone Good
PM2.5 Good
Flu Activity Local Activity
METAR KFLL 251753Z 04011G19KT 10SM SCT045 BKN055 27/17 A2989 RMK AO2 SLP121 T02720172 10289 20206 58012

More Conditions Fewer Conditions

10-Day Weather Forecast

Almanac

Astronomy

Oct. 25, 2014 Rise Set
Actual Time 7:24 AM EDT 6:43 PM EDT
Civil Twilight 7:01 AM EDT 7:07 PM EDT
Nautical Twilight 6:34 AM EDT 7:34 PM EDT
Astronomical Twilight 6:07 AM EDT 8:01 PM EDT
Moon 8:55 AM EDT 8:13 PM EDT
Length of Visible Light 12h 06m
Length of Day
11h 19m
Tomorrow will be 1m 23s shorter.
Waxing Crescent, 4% of the Moon is Illuminated
Today
Waxing Crescent
Oct 30
First Quarter
Nov 6
Full
Nov 14
Last Quarter
Nov 22
New

Today's Extremes

State Highs State Lows

Community

WunderPhotos

Upload Photos

1,764,931 photos uploaded!

Nearby

Air Quality

  Air Quality AQ Index Pollutant
Yesterday Good
OZONE
Yesterday Good
PM2.5
Current Good
OZONE
Current Good
PM2.5
Saturday Good
OZONE
Saturday Good
PM2.5
Sunday Good
OZONE
Sunday Good
PM2.5
Monday Good
OZONE
Monday Good
PM2.5

Snow Depth

Station Depth Elevation
No new snow has been reported.

Earthquake Activity

City Distance Mag. Time & Date
No recent earthquake activity has been reported nearby.
Minimum magnitude displayed is 2.5.

Coastal Water Temperatures

Place Temperature
Virginia Key, FL 79.0 °F

Nearby Weather Stations